YKX weather

Kirkland Lake Airport
Kirkland Lake, Ontario, Canada

Public forecast

Using degrees Celsius for public forecast. Weather courtesy of forecast.io.

Closest aviation weather report (METAR) to Kirkland Lake Airport

Closest report is Earlton (Timiskaming Regional) Airport, 31.3 nm (57.9 km) S. Retrieved 2019/11/21 02:00 UTC (6 minutes ago):

CYXR 210200Z AUTO 13005KT 5SM BR OVC025 00/M00 A3013 RMK SLP218

Closest aviation forecast (TAF) to Kirkland Lake Airport

Forecast is more than 6 hours old.

Closest forecast is Earlton (Timiskaming Regional) Airport, 31.3 nm (57.9 km) S. Retrieved 2019/11/20 18:00 UTC (8 hours ago):

TAF CYXR 201744Z 2018/2101 VRB03KT P6SM SCT012 BKN025 TEMPO 2018/2101 BKN012 OVC025 RMK FCST BASED ON AUTO OBS NXT FCST WILL BE ISSUED AT 211245Z